Time;durP1;ratioP1;P1;durP2;ratioP2;P2;SDS_P1;SDS_P2;PMS_P1;PMS_P2;Temp;Humidity;BMP_temperature;BMP_pressure;BME280_temperature;BME280_humidity;BME280_pressure;Samples;Min_cycle;Max_cycle;Signal;HPM_P1;HPM_P2
2022/05/07 00:01:05;;;;;;;49.72;38.25;;;12.70;99.90;;;;;;5053783;28;20029;-63
2022/05/07 00:03:31;;;;;;;54.50;41.03;;;12.70;99.90;;;;;;5053323;28;20490;-63
2022/05/07 00:05:56;;;;;;;54.53;41.05;;;12.70;99.90;;;;;;5052800;28;20048;-63
2022/05/07 00:08:22;;;;;;;61.78;47.55;;;13.20;99.90;;;;;;5052715;28;20052;-63
2022/05/07 00:10:48;;;;;;;62.53;45.92;;;12.70;99.90;;;;;;5053259;28;20052;-63
2022/05/07 00:13:14;;;;;;;49.13;39.00;;;12.90;99.90;;;;;;5053808;28;20041;-63
2022/05/07 00:15:40;;;;;;;50.15;40.85;;;13.30;99.90;;;;;;5052912;28;20501;-63
2022/05/07 00:18:07;;;;;;;63.65;46.22;;;13.10;99.90;;;;;;5052470;28;20045;-63
2022/05/07 00:20:34;;;;;;;56.70;41.38;;;12.60;99.90;;;;;;5036420;28;20044;-63
2022/05/07 00:23:00;;;;;;;58.35;42.15;;;12.80;99.90;;;;;;5053668;28;20485;-63
2022/05/07 00:25:27;;;;;;;55.47;42.90;;;13.00;99.90;;;;;;5051668;28;20128;-63
2022/05/07 00:27:53;;;;;;;58.60;43.95;;;13.40;99.90;;;;;;5052498;28;20037;-63
2022/05/07 00:30:19;;;;;;;58.05;43.38;;;13.30;99.90;;;;;;5052617;28;20044;-63
2022/05/07 00:32:46;;;;;;;60.67;44.75;;;12.80;99.90;;;;;;5051565;28;20055;-63
2022/05/07 00:35:12;;;;;;;61.90;45.88;;;12.80;99.90;;;;;;5053329;28;20033;-63
2022/05/07 00:37:38;;;;;;;56.83;42.08;;;12.80;99.90;;;;;;5052421;28;20049;-63
2022/05/07 00:40:04;;;;;;;57.42;41.97;;;12.80;99.90;;;;;;5052610;28;20037;-62
2022/05/07 00:42:30;;;;;;;52.72;38.60;;;12.70;99.90;;;;;;5053523;28;20099;-63
2022/05/07 00:44:56;;;;;;;61.15;45.10;;;12.70;99.90;;;;;;5053120;28;20033;-63
2022/05/07 00:47:24;;;;;;;50.13;37.25;;;12.60;99.90;;;;;;5050965;28;20041;-62
2022/05/07 00:49:53;;;;;;;55.42;40.60;;;12.80;99.90;;;;;;5053286;28;20045;-62
2022/05/07 00:52:19;;;;;;;55.03;40.03;;;12.80;99.90;;;;;;5052376;28;20044;-63
2022/05/07 00:54:46;;;;;;;55.83;38.97;;;12.80;99.90;;;;;;5035418;28;20067;-63
2022/05/07 00:57:16;;;;;;;48.92;36.47;;;13.10;99.90;;;;;;5050831;28;20036;-63
2022/05/07 00:59:42;;;;;;;59.58;43.20;;;13.60;99.90;;;;;;5052219;28;20041;-63
2022/05/07 01:02:08;;;;;;;63.28;47.45;;;13.00;99.90;;;;;;5052584;28;20040;-63
2022/05/07 01:04:36;;;;;;;62.35;44.85;;;12.80;99.90;;;;;;5035362;28;20505;-63
2022/05/07 01:07:02;;;;;;;57.70;44.38;;;12.90;99.90;;;;;;5050944;28;20051;-63
2022/05/07 01:09:29;;;;;;;51.88;37.72;;;12.70;99.90;;;;;;5051546;28;20405;-63
2022/05/07 01:11:56;;;;;;;49.90;37.83;;;12.90;99.90;;;;;;5051796;28;20084;-62
2022/05/07 01:14:21;;;;;;;60.17;43.10;;;13.10;99.90;;;;;;5050513;28;20083;-63
2022/05/07 01:16:47;;;;;;;58.97;43.33;;;13.10;99.90;;;;;;5051549;28;20036;-63
2022/05/07 01:19:13;;;;;;;58.88;39.63;;;12.80;99.90;;;;;;5051327;28;20525;-63
2022/05/07 01:21:38;;;;;;;55.15;41.10;;;12.80;99.90;;;;;;5050782;28;20049;-63
2022/05/07 01:24:04;;;;;;;55.40;39.85;;;12.80;99.90;;;;;;5052420;28;20083;-63
2022/05/07 01:26:30;;;;;;;53.30;37.75;;;12.80;99.90;;;;;;5052668;28;20219;-63
2022/05/07 01:29:07;;;;;;;54.25;40.08;;;13.90;99.90;;;;;;5051542;28;20553;-63
2022/05/07 01:31:32;;;;;;;49.70;38.20;;;12.90;99.90;;;;;;5051426;28;20049;-63
2022/05/07 01:33:58;;;;;;;54.28;38.95;;;12.90;99.90;;;;;;5052387;28;20099;-63
2022/05/07 01:36:24;;;;;;;52.17;39.00;;;12.90;99.90;;;;;;5051571;28;20674;-63
2022/05/07 01:38:49;;;;;;;60.17;43.28;;;12.90;99.90;;;;;;5051042;28;20398;-63
2022/05/07 01:41:15;;;;;;;54.58;39.45;;;12.90;99.90;;;;;;5051567;28;20033;-63
2022/05/07 01:43:41;;;;;;;52.72;37.40;;;13.20;99.90;;;;;;5051114;28;20048;-63
2022/05/07 01:48:09;;;;;;;52.10;38.67;;;13.00;99.90;;;;;;5051984;28;20041;-63
2022/05/07 01:48:53;;;;;;;57.53;39.60;;;13.00;99.90;;;;;;5051469;28;20048;-63
2022/05/07 01:51:18;;;;;;;52.88;37.35;;;12.90;99.90;;;;;;5050886;28;20045;-63
2022/05/07 01:53:44;;;;;;;54.80;38.08;;;13.70;99.90;;;;;;5051030;28;20092;-63
2022/05/07 01:56:09;;;;;;;55.42;38.92;;;13.00;99.90;;;;;;5050875;28;20032;-63
2022/05/07 01:58:35;;;;;;;48.80;34.85;;;13.70;99.90;;;;;;5052436;28;20044;-63
2022/05/07 02:01:00;;;;;;;50.13;35.95;;;13.00;99.90;;;;;;5050618;28;20452;-63
2022/05/07 02:03:26;;;;;;;50.72;36.28;;;13.30;99.90;;;;;;5051209;28;20041;-63
2022/05/07 02:05:51;;;;;;;45.13;33.38;;;13.00;99.90;;;;;;5050926;28;20080;-63
2022/05/07 02:08:17;;;;;;;46.72;34.38;;;13.00;99.90;;;;;;5051661;28;20071;-63
2022/05/07 02:10:43;;;;;;;46.40;34.35;;;13.10;99.90;;;;;;5051234;28;20397;-63
2022/05/07 02:13:09;;;;;;;41.60;32.35;;;13.00;99.90;;;;;;5051575;28;20041;-63
2022/05/07 02:15:35;;;;;;;44.45;33.17;;;12.90;99.90;;;;;;5050900;28;20029;-63
2022/05/07 02:18:00;;;;;;;46.35;32.80;;;13.00;99.90;;;;;;5049680;28;20058;-63
2022/05/07 02:20:26;;;;;;;44.63;32.42;;;13.00;99.90;;;;;;5050487;28;20041;-63
2022/05/07 02:22:55;;;;;;;38.17;29.70;;;12.90;99.90;;;;;;5050664;28;20064;-63
2022/05/07 02:25:24;;;;;;;42.08;32.85;;;13.60;99.90;;;;;;5049777;28;20045;-63
2022/05/07 02:27:50;;;;;;;39.75;30.40;;;12.90;99.90;;;;;;5051829;28;20041;-63
2022/05/07 02:30:19;;;;;;;45.63;29.05;;;13.00;99.90;;;;;;5050415;28;20036;-62
2022/05/07 02:32:47;;;;;;;39.28;30.55;;;12.90;99.90;;;;;;5051157;28;20045;-63
2022/05/07 02:35:13;;;;;;;41.20;30.75;;;12.80;99.90;;;;;;5050283;28;20040;-63
2022/05/07 02:37:39;;;;;;;38.90;29.98;;;13.00;99.90;;;;;;5050177;28;20052;-63
2022/05/07 02:40:05;;;;;;;40.05;29.75;;;12.90;99.90;;;;;;5051319;28;20482;-63
2022/05/07 02:42:36;;;;;;;42.58;32.60;;;12.90;99.90;;;;;;5052147;28;20056;-62
2022/05/07 02:45:06;;;;;;;44.22;32.20;;;13.10;99.90;;;;;;5049757;28;20090;-62
2022/05/07 02:47:36;;;;;;;39.22;29.20;;;12.80;99.90;;;;;;5051708;28;20551;-63
2022/05/07 02:50:03;;;;;;;41.95;30.40;;;12.80;99.90;;;;;;5050310;28;20397;-63
2022/05/07 02:52:32;;;;;;;41.53;28.73;;;12.80;99.90;;;;;;5050915;28;20052;-63
2022/05/07 02:54:59;;;;;;;40.50;31.02;;;12.70;99.90;;;;;;5051510;28;20515;-63
2022/05/07 02:57:24;;;;;;;37.03;28.33;;;13.20;99.90;;;;;;5050029;28;20049;-63
2022/05/07 02:59:50;;;;;;;39.90;29.00;;;;;;;;;;5050611;28;20090;-63
2022/05/07 03:02:16;;;;;;;40.50;30.65;;;;;;;;;;5051357;28;20040;-63
2022/05/07 03:04:42;;;;;;;42.45;31.38;;;12.50;99.90;;;;;;5051566;28;20064;-62
2022/05/07 03:07:08;;;;;;;47.30;33.08;;;12.50;99.90;;;;;;5050423;28;20740;-63
2022/05/07 03:09:33;;;;;;;42.17;30.02;;;12.40;99.90;;;;;;5050437;28;20051;-62
2022/05/07 03:11:59;;;;;;;40.35;31.52;;;12.40;99.90;;;;;;5033577;28;20138;-62
2022/05/07 03:14:25;;;;;;;45.42;30.05;;;12.40;99.90;;;;;;5050490;28;20490;-63
2022/05/07 03:16:51;;;;;;;37.67;28.67;;;12.40;99.90;;;;;;5050893;28;20041;-63
2022/05/07 03:19:16;;;;;;;44.08;30.73;;;12.40;99.90;;;;;;5051505;28;20041;-63
2022/05/07 03:21:43;;;;;;;39.08;29.20;;;12.40;99.90;;;;;;5054586;28;20037;-63
2022/05/07 03:24:09;;;;;;;37.90;28.17;;;12.40;99.90;;;;;;5053582;28;20119;-63
2022/05/07 03:26:35;;;;;;;37.22;29.58;;;12.40;99.90;;;;;;5054984;28;20087;-63
2022/05/07 03:29:00;;;;;;;36.78;31.65;;;12.40;99.90;;;;;;5053998;28;20076;-63
2022/05/07 03:31:27;;;;;;;36.80;27.52;;;12.40;99.90;;;;;;5054600;28;20073;-62
2022/05/07 03:33:52;;;;;;;40.20;31.33;;;12.30;99.90;;;;;;5053651;28;20041;-63
2022/05/07 03:36:21;;;;;;;35.75;28.45;;;12.40;99.90;;;;;;5054708;28;20106;-63
2022/05/07 03:38:46;;;;;;;34.92;26.65;;;12.40;99.90;;;;;;5036843;28;20041;-63
2022/05/07 03:41:13;;;;;;;43.05;33.22;;;12.40;99.90;;;;;;5053441;28;20120;-63
2022/05/07 03:43:39;;;;;;;37.08;29.25;;;12.40;99.90;;;;;;5053565;28;20095;-62
2022/05/07 03:46:05;;;;;;;37.53;28.75;;;12.40;99.90;;;;;;5054193;28;20477;-63
2022/05/07 03:48:31;;;;;;;34.58;28.65;;;12.40;99.90;;;;;;5052593;28;20098;-63
2022/05/07 03:50:57;;;;;;;40.15;30.25;;;12.30;99.90;;;;;;5053063;28;20124;-62
2022/05/07 03:53:32;;;;;;;43.40;33.75;;;12.00;99.90;;;;;;5054328;28;20037;-63
2022/05/07 03:56:08;;;;;;;38.95;29.50;;;12.30;99.90;;;;;;5053299;28;20545;-62
2022/05/07 03:58:35;;;;;;;38.90;30.98;;;12.40;99.90;;;;;;5054454;28;20120;-63
2022/05/07 04:01:01;;;;;;;45.85;35.65;;;12.40;99.90;;;;;;5054414;28;20045;-63
2022/05/07 04:03:28;;;;;;;46.58;35.53;;;12.40;99.90;;;;;;5052084;28;20485;-62
2022/05/07 04:05:55;;;;;;;47.25;33.83;;;12.40;99.90;;;;;;5052709;28;20074;-63
2022/05/07 04:08:21;;;;;;;41.75;32.78;;;12.40;99.90;;;;;;5053837;28;20500;-63
2022/05/07 04:10:47;;;;;;;48.75;34.25;;;12.40;99.90;;;;;;5053432;28;20052;-62
2022/05/07 04:13:15;;;;;;;42.90;34.03;;;12.40;99.90;;;;;;5052294;28;20041;-62
2022/05/07 04:15:43;;;;;;;40.20;30.85;;;12.40;99.90;;;;;;5053001;28;20037;-63
2022/05/07 04:18:09;;;;;;;47.38;37.58;;;12.40;99.90;;;;;;5052689;28;20065;-62
2022/05/07 04:20:36;;;;;;;46.35;36.90;;;12.40;99.90;;;;;;5054183;28;20032;-62
2022/05/07 04:23:02;;;;;;;43.88;35.85;;;12.40;99.90;;;;;;5052029;28;20045;-62
2022/05/07 04:25:28;;;;;;;41.42;33.55;;;12.40;99.90;;;;;;5053446;28;20518;-63
2022/05/07 04:27:54;;;;;;;42.45;33.08;;;12.40;99.90;;;;;;5035718;28;20037;-63
2022/05/07 04:30:23;;;;;;;44.88;36.85;;;12.40;99.90;;;;;;5051671;28;20044;-63
2022/05/07 04:32:49;;;;;;;47.40;38.88;;;12.40;99.90;;;;;;5053617;28;20039;-63
2022/05/07 04:35:15;;;;;;;46.45;35.22;;;12.40;99.90;;;;;;5053262;28;20033;-63
2022/05/07 04:37:41;;;;;;;51.28;39.42;;;12.40;99.90;;;;;;5052770;28;20036;-63
2022/05/07 04:40:09;;;;;;;51.10;38.80;;;12.40;99.90;;;;;;5052965;28;20051;-63
2022/05/07 04:42:35;;;;;;;50.33;36.03;;;12.40;99.90;;;;;;5053466;28;20041;-62
2022/05/07 04:45:01;;;;;;;46.83;37.63;;;12.30;99.90;;;;;;5052737;28;20046;-63
2022/05/07 04:47:27;;;;;;;48.30;37.70;;;12.40;99.90;;;;;;5051958;28;20510;-63
2022/05/07 04:49:52;;;;;;;42.38;34.55;;;12.40;99.90;;;;;;5053160;28;20048;-63
2022/05/07 04:52:18;;;;;;;52.22;40.67;;;12.40;99.90;;;;;;5052353;28;20391;-62
2022/05/07 04:54:43;;;;;;;46.67;36.78;;;12.40;99.90;;;;;;5051972;28;20067;-63
2022/05/07 04:57:09;;;;;;;56.10;40.75;;;12.40;99.90;;;;;;5051486;28;20069;-63
2022/05/07 04:59:35;;;;;;;49.17;36.78;;;12.40;99.90;;;;;;5052637;28;20093;-63
2022/05/07 05:02:00;;;;;;;46.35;36.13;;;12.50;99.90;;;;;;5051801;28;20044;-63
2022/05/07 05:04:26;;;;;;;45.13;35.80;;;12.40;99.90;;;;;;5052984;28;20499;-63
2022/05/07 05:06:51;;;;;;;45.17;34.28;;;12.40;99.90;;;;;;5050809;28;20041;-63
2022/05/07 05:09:17;;;;;;;49.60;38.42;;;12.40;99.90;;;;;;5052741;28;20048;-63
2022/05/07 05:11:43;;;;;;;48.38;37.83;;;12.50;99.90;;;;;;5052960;28;20489;-63
2022/05/07 05:16:53;;;;;;;49.03;37.97;;;12.50;99.90;;;;;;5063910;28;20059;-63
2022/05/07 05:19:19;;;;;;;51.35;38.95;;;12.50;99.90;;;;;;5071773;28;20040;-63
2022/05/07 05:21:45;;;;;;;49.47;38.13;;;12.60;99.90;;;;;;5055033;28;20048;-63
2022/05/07 05:24:12;;;;;;;49.25;39.30;;;12.60;99.90;;;;;;5072012;28;20048;-63
2022/05/07 05:26:37;;;;;;;55.55;40.58;;;12.60;99.90;;;;;;5037376;28;20044;-63
2022/05/07 05:29:03;;;;;;;52.75;39.35;;;12.60;99.90;;;;;;5054526;28;20393;-63
2022/05/07 05:31:30;;;;;;;55.38;40.40;;;12.60;99.90;;;;;;5038181;28;20048;-63
2022/05/07 05:33:57;;;;;;;52.17;37.95;;;12.60;99.90;;;;;;5053714;28;20044;-63
2022/05/07 05:36:24;;;;;;;51.97;40.83;;;12.60;99.90;;;;;;5054438;28;20117;-63
2022/05/07 05:38:49;;;;;;;57.10;40.70;;;12.70;99.90;;;;;;5028222;28;20033;-63
2022/05/07 05:41:15;;;;;;;51.10;39.63;;;12.80;99.90;;;;;;5050445;28;20048;-63
2022/05/07 05:43:40;;;;;;;53.60;40.13;;;12.70;99.90;;;;;;5072475;28;20045;-63
2022/05/07 05:46:06;;;;;;;58.75;42.33;;;12.80;99.90;;;;;;5071563;28;20401;-63
2022/05/07 05:48:32;;;;;;;52.03;40.88;;;13.20;99.90;;;;;;5052892;28;20115;-63
2022/05/07 05:50:57;;;;;;;55.60;41.40;;;12.90;99.90;;;;;;5054186;28;20094;-63
2022/05/07 05:53:23;;;;;;;58.38;42.97;;;13.30;99.90;;;;;;5071718;28;20040;-63
2022/05/07 05:55:48;;;;;;;59.70;41.70;;;12.90;99.90;;;;;;5071482;28;20032;-63
2022/05/07 05:58:14;;;;;;;48.08;36.78;;;13.20;99.90;;;;;;5053773;28;20481;-63
2022/05/07 06:00:40;;;;;;;51.40;38.80;;;13.20;99.90;;;;;;5072216;28;20040;-63
2022/05/07 06:03:06;;;;;;;50.80;38.85;;;12.90;99.90;;;;;;5052943;28;20048;-63
2022/05/07 06:05:31;;;;;;;51.15;38.92;;;14.10;99.90;;;;;;5054382;28;20040;-63
2022/05/07 06:07:58;;;;;;;53.50;40.72;;;;;;;;;;5067005;28;20045;-63
2022/05/07 06:10:24;;;;;;;61.97;42.13;;;13.40;99.90;;;;;;5067750;28;20084;-63
2022/05/07 06:12:50;;;;;;;65.10;42.38;;;;;;;;;;5069680;28;20060;-63
2022/05/07 06:15:16;;;;;;;66.18;44.53;;;;;;;;;;5053314;28;20045;-63
2022/05/07 06:17:42;;;;;;;67.22;45.00;;;;;;;;;;5052833;28;20053;-63
2022/05/07 06:20:07;;;;;;;66.15;43.80;;;13.90;99.90;;;;;;5053702;28;20048;-62
2022/05/07 06:22:33;;;;;;;64.85;43.25;;;;;;;;;;5071553;28;20040;-63
2022/05/07 06:27:43;;;;;;;58.65;42.25;;;13.70;99.90;;;;;;5071419;28;20041;-63
2022/05/07 06:30:09;;;;;;;52.42;39.25;;;15.40;99.90;;;;;;5052375;28;20071;-63
2022/05/07 06:32:36;;;;;;;49.60;37.15;;;;;;;;;;5071947;28;20047;-63
2022/05/07 06:35:06;;;;;;;45.83;34.05;;;;;;;;;;5053288;28;20489;-63
2022/05/07 06:37:32;;;;;;;47.20;35.60;;;;;;;;;;5071373;28;20040;-63
2022/05/07 06:39:58;;;;;;;51.38;38.03;;;;;;;;;;5053846;28;20560;-63
2022/05/07 06:42:24;;;;;;;52.33;37.63;;;;;;;;;;5071068;28;20611;-63
2022/05/07 06:44:51;;;;;;;57.72;42.58;;;;;;;;;;5070445;28;20128;-63
2022/05/07 06:47:17;;;;;;;65.25;44.92;;;;;;;;;;5052569;28;20044;-63
2022/05/07 06:49:43;;;;;;;70.38;48.17;;;;;;;;;;5070862;28;20045;-63
2022/05/07 06:52:10;;;;;;;64.85;43.65;;;;;;;;;;5052092;28;20033;-63
2022/05/07 06:54:36;;;;;;;62.03;42.47;;;;;;;;;;5056012;28;20507;-63
2022/05/07 06:57:03;;;;;;;61.22;43.92;;;;;;;;;;5057279;28;20033;-63
2022/05/07 06:59:29;;;;;;;71.22;49.60;;;;;;;;;;5074349;28;20048;-63
2022/05/07 07:01:55;;;;;;;68.85;47.42;;;;;;;;;;5040959;28;20044;-63
2022/05/07 07:04:22;;;;;;;62.97;45.47;;;;;;;;;;5073767;28;20066;-63
2022/05/07 07:06:49;;;;;;;73.93;47.72;;;;;;;;;;5074061;28;20072;-63
2022/05/07 07:09:15;;;;;;;69.97;48.83;;;;;;;;;;5074838;28;20044;-63
2022/05/07 07:11:41;;;;;;;68.03;44.55;;;;;;;;;;5057354;28;20400;-63
2022/05/07 07:14:07;;;;;;;70.88;49.45;;;;;;;;;;5055649;28;20128;-63
2022/05/07 07:16:33;;;;;;;67.93;47.22;;;;;;;;;;5056627;28;20128;-63
2022/05/07 07:19:00;;;;;;;76.53;46.90;;;;;;;;;;5073797;28;20040;-63
2022/05/07 07:21:26;;;;;;;81.20;50.80;;;;;;;;;;5070479;28;20083;-63
2022/05/07 07:23:52;;;;;;;81.30;54.28;;;;;;;;;;5056686;28;20098;-63
2022/05/07 07:26:18;;;;;;;83.90;54.40;;;;;;;;;;5073772;28;20680;-63
2022/05/07 07:28:45;;;;;;;74.25;48.25;;;;;;;;;;5074544;28;20040;-63
2022/05/07 07:31:12;;;;;;;81.68;52.55;;;;;;;;;;5074111;28;20050;-64
2022/05/07 07:33:38;;;;;;;92.00;55.53;;;;;;;;;;5055803;28;20074;-63
2022/05/07 07:36:05;;;;;;;76.68;48.72;;;;;;;;;;5074666;28;20047;-63
2022/05/07 07:38:31;;;;;;;80.88;49.88;;;;;;;;;;5056429;28;20037;-63
2022/05/07 07:40:57;;;;;;;80.35;49.83;;;;;;;;;;5073680;28;20036;-63
2022/05/07 07:43:24;;;;;;;82.28;48.58;;;;;;;;;;5039284;28;20044;-63
2022/05/07 07:48:35;;;;;;;76.00;49.53;;;;;;;;;;5055606;28;20044;-63
2022/05/07 07:51:01;;;;;;;78.10;49.67;;;;;;;;;;5074363;28;20047;-63
2022/05/07 07:53:27;;;;;;;73.32;44.47;;;;;;;;;;5070980;28;20463;-63
2022/05/07 07:55:53;;;;;;;68.85;43.40;;;;;;;;;;5053484;28;20048;-63
2022/05/07 07:58:19;;;;;;;75.57;47.05;;;;;;;;;;5071578;28;20040;-63
2022/05/07 08:00:45;;;;;;;67.05;43.90;;;;;;;;;;5074489;28;20123;-63
2022/05/07 08:03:12;;;;;;;57.28;39.65;;;;;;;;;;5072675;28;20036;-63
2022/05/07 08:05:39;;;;;;;64.95;43.88;;;;;;;;;;5056187;28;20090;-63
2022/05/07 08:13:36;;;;;;;58.65;39.85;;;;;;;;;;5055731;28;20049;-63
2022/05/07 08:16:03;;;;;;;65.25;42.65;;;;;;;;;;5055014;28;20084;-63
2022/05/07 08:18:29;;;;;;;64.20;41.50;;;;;;;;;;5073470;28;20135;-63
2022/05/07 08:20:56;;;;;;;62.50;43.28;;;;;;;;;;5054819;28;20384;-63
2022/05/07 08:23:22;;;;;;;60.40;38.35;;;;;;;;;;5057147;28;20044;-63
2022/05/07 08:25:48;;;;;;;61.05;41.65;;;14.50;99.90;;;;;;5071406;28;20119;-63
2022/05/07 08:28:15;;;;;;;63.10;42.05;;;;;;;;;;5071123;28;20047;-63
2022/05/07 08:30:41;;;;;;;59.55;41.03;;;;;;;;;;5070191;28;20044;-63
2022/05/07 08:33:07;;;;;;;59.80;42.28;;;14.90;99.90;;;;;;5051785;28;20048;-63
2022/05/07 08:35:33;;;;;;;61.72;43.30;;;;;;;;;;5069712;28;20577;-63
2022/05/07 08:37:59;;;;;;;63.05;42.60;;;14.80;99.90;;;;;;5069701;28;20055;-63
2022/05/07 08:40:27;;;;;;;52.20;36.10;;;14.90;99.90;;;;;;5070471;28;20040;-63
2022/05/07 08:42:54;;;;;;;56.63;38.85;;;15.10;99.90;;;;;;5050013;28;20040;-63
2022/05/07 08:45:20;;;;;;;51.28;36.42;;;15.50;99.90;;;;;;5051154;28;20060;-63
2022/05/07 08:47:46;;;;;;;49.55;35.08;;;;;;;;;;5064935;28;20040;-63
2022/05/07 08:50:14;;;;;;;51.38;35.08;;;;;;;;;;5058179;28;20036;-63
2022/05/07 08:52:42;;;;;;;51.47;32.97;;;;;;;;;;5067871;28;20107;-63
2022/05/07 08:55:15;;;;;;;39.72;29.60;;;;;;;;;;5069490;28;20606;-63
2022/05/07 08:57:42;;;;;;;48.10;35.50;;;;;;;;;;5052669;28;20094;-63
2022/05/07 09:00:09;;;;;;;33.97;25.42;;;;;;;;;;5051900;28;20200;-63
2022/05/07 09:02:41;;;;;;;35.50;24.40;;;;;;;;;;5052811;28;20044;-63
2022/05/07 09:05:07;;;;;;;34.00;24.85;;;;;;;;;;5050913;28;20055;-63
2022/05/07 09:07:33;;;;;;;40.67;28.67;;;15.50;99.90;;;;;;5070440;28;20508;-63
2022/05/07 09:09:59;;;;;;;41.15;28.95;;;;;;;;;;5070289;28;20044;-62
2022/05/07 09:12:28;;;;;;;38.25;27.88;;;;;;;;;;5068283;28;20511;-63
2022/05/07 09:14:55;;;;;;;37.83;28.35;;;;;;;;;;5069793;28;20043;-63
2022/05/07 09:17:21;;;;;;;39.58;28.67;;;;;;;;;;5068343;28;20094;-63
2022/05/07 09:19:47;;;;;;;42.17;30.02;;;;;;;;;;5069702;28;20497;-63
2022/05/07 09:22:13;;;;;;;42.50;30.65;;;;;;;;;;5052301;28;20098;-63
2022/05/07 09:24:40;;;;;;;46.13;30.85;;;;;;;;;;5070232;28;20090;-63
2022/05/07 09:27:06;;;;;;;41.28;29.75;;;;;;;;;;5051568;28;20049;-63
2022/05/07 09:29:33;;;;;;;43.47;31.00;;;16.30;99.90;;;;;;5070535;28;20048;-62
2022/05/07 09:32:09;;;;;;;51.22;35.80;;;15.70;99.90;;;;;;5069930;28;20083;-63
2022/05/07 09:37:35;;;;;;;48.92;34.08;;;16.20;99.90;;;;;;5070513;28;20123;-62
2022/05/07 09:40:09;;;;;;;42.67;30.60;;;16.00;99.90;;;;;;5051456;28;20044;-63
2022/05/07 09:42:35;;;;;;;41.13;31.55;;;16.30;99.90;;;;;;5068674;28;20124;-63
2022/05/07 09:45:03;;;;;;;45.78;32.40;;;16.00;99.90;;;;;;5070082;28;20037;-63
2022/05/07 09:47:30;;;;;;;45.63;32.67;;;15.70;99.90;;;;;;5069323;28;20032;-63
2022/05/07 09:58:21;;;;;;;37.97;26.83;;;15.50;99.90;;;;;;5051381;28;20092;-62
2022/05/07 10:01:11;;;;;;;33.10;24.00;;;15.60;99.90;;;;;;5068677;28;20079;-63
2022/05/07 10:04:05;;;;;;;23.05;15.45;;;15.20;99.90;;;;;;5057334;28;20796;-62
2022/05/07 10:06:53;;;;;;;15.73;11.40;;;15.50;99.90;;;;;;5051750;28;20051;-62
2022/05/07 10:09:42;;;;;;;16.80;11.27;;;15.50;99.90;;;;;;5062562;28;20527;-62
2022/05/07 10:12:09;;;;;;;12.60;8.05;;;15.40;99.90;;;;;;5045408;28;20048;-62
2022/05/07 10:14:35;;;;;;;14.25;8.05;;;15.50;99.90;;;;;;5055939;28;20419;-63
2022/05/07 10:17:04;;;;;;;15.38;8.65;;;16.30;99.90;;;;;;5050933;28;20151;-63
2022/05/07 10:19:44;;;;;;;12.95;8.05;;;15.60;99.90;;;;;;5069977;28;20075;-63
2022/05/07 10:22:24;;;;;;;12.80;9.30;;;15.80;99.90;;;;;;5034351;28;20044;-63
2022/05/07 10:25:04;;;;;;;12.00;8.40;;;16.30;99.90;;;;;;5068304;28;20078;-63
2022/05/07 10:27:32;;;;;;;16.85;9.23;;;15.70;99.90;;;;;;5051255;28;20040;-63
2022/05/07 10:30:19;;;;;;;11.30;8.57;;;17.00;99.90;;;;;;5053442;28;20045;-63
2022/05/07 10:32:57;;;;;;;13.88;7.22;;;16.30;99.90;;;;;;5049477;28;20060;-63
2022/05/07 10:35:45;;;;;;;16.10;10.40;;;16.60;99.90;;;;;;5068152;28;20044;-63
2022/05/07 10:38:23;;;;;;;16.67;10.85;;;16.10;99.90;;;;;;5043187;28;20041;-63
2022/05/07 10:40:53;;;;;;;17.42;9.55;;;16.10;99.90;;;;;;5052012;28;20055;-62
2022/05/07 10:43:27;;;;;;;13.57;9.07;;;16.10;99.90;;;;;;5051452;28;20111;-63
2022/05/07 10:46:04;;;;;;;19.75;13.25;;;16.00;99.90;;;;;;5049708;28;20044;-63
2022/05/07 10:49:07;;;;;;;21.17;14.52;;;15.70;99.90;;;;;;5044411;28;20528;-63
2022/05/07 10:51:34;;;;;;;24.17;17.60;;;16.00;99.90;;;;;;5044882;28;20132;-63
2022/05/07 10:54:01;;;;;;;24.90;17.77;;;;;;;;;;5054366;28;20044;-63
2022/05/07 10:56:28;;;;;;;27.45;17.58;;;15.60;99.90;;;;;;5063054;28;20041;-63
2022/05/07 10:58:57;;;;;;;21.08;13.60;;;;;;;;;;5052644;28;20128;-63
2022/05/07 11:01:24;;;;;;;18.85;12.13;;;;;;;;;;5043261;28;20097;-63
2022/05/07 11:04:03;;;;;;;20.40;14.32;;;;;;;;;;5050090;28;20051;-63
2022/05/07 11:06:29;;;;;;;16.38;12.02;;;;;;;;;;5061936;28;20048;-63
2022/05/07 11:08:55;;;;;;;16.08;10.73;;;;;;;;;;5071460;28;20040;-63
2022/05/07 11:11:24;;;;;;;18.92;12.32;;;;;;;;;;5036094;28;20085;-63
2022/05/07 11:13:52;;;;;;;15.18;9.73;;;;;;;;;;5072858;28;20155;-63
2022/05/07 11:16:19;;;;;;;16.02;10.23;;;;;;;;;;5071741;28;20394;-63
2022/05/07 11:18:49;;;;;;;17.05;12.40;;;;;;;;;;5071666;28;20127;-63
2022/05/07 11:21:15;;;;;;;19.15;12.18;;;;;;;;;;5071984;28;20190;-63
2022/05/07 11:23:43;;;;;;;17.75;11.77;;;;;;;;;;5072157;28;20075;-63
2022/05/07 11:26:11;;;;;;;14.68;9.77;;;;;;;;;;5053394;28;20049;-63
2022/05/07 11:28:39;;;;;;;19.42;11.90;;;;;;;;;;5072201;28;20044;-63
2022/05/07 11:31:05;;;;;;;18.85;11.15;;;;;;;;;;5071578;28;20074;-63
2022/05/07 11:33:31;;;;;;;16.33;10.63;;;;;;;;;;5071619;28;20044;-63
2022/05/07 11:36:06;;;;;;;15.55;9.43;;;16.80;99.90;;;;;;5053696;28;20190;-63
2022/05/07 11:38:33;;;;;;;17.52;11.23;;;16.90;99.90;;;;;;5043728;28;20567;-63
2022/05/07 11:41:10;;;;;;;17.65;13.45;;;17.20;99.90;;;;;;5040344;28;20044;-63
2022/05/07 11:46:20;;;;;;;20.42;15.07;;;;;;;;;;5068801;28;20032;-63
2022/05/07 11:48:45;;;;;;;22.77;15.23;;;16.80;99.90;;;;;;5053605;28;20044;-63
2022/05/07 11:51:11;;;;;;;21.75;14.25;;;16.70;99.90;;;;;;5068503;28;20059;-63
2022/05/07 11:53:37;;;;;;;21.15;14.93;;;16.50;99.90;;;;;;5049814;28;20124;-63
2022/05/07 11:56:10;;;;;;;27.35;16.95;;;16.90;99.90;;;;;;5046686;28;20094;-63
2022/05/07 11:58:40;;;;;;;22.73;16.80;;;16.90;99.90;;;;;;5024450;28;20063;-63
2022/05/07 12:01:20;;;;;;;16.73;12.63;;;16.80;99.90;;;;;;5047750;28;20040;-63
2022/05/07 12:03:47;;;;;;;23.42;16.45;;;16.90;99.90;;;;;;5038838;28;20049;-63
2022/05/07 12:06:24;;;;;;;24.73;15.88;;;16.50;99.90;;;;;;5051213;28;20036;-64
2022/05/07 12:08:49;;;;;;;21.70;15.05;;;16.50;99.90;;;;;;5055635;28;20513;-64
2022/05/07 12:11:16;;;;;;;17.73;13.15;;;;;;;;;;5067390;28;20090;-64
2022/05/07 12:13:45;;;;;;;19.30;13.02;;;16.70;99.90;;;;;;5070975;28;20139;-59
2022/05/07 12:18:54;;;;;;;19.63;12.50;;;16.80;99.90;;;;;;5042976;28;20456;-58
2022/05/07 12:29:49;;;;;;;15.77;10.70;;;17.00;99.90;;;;;;5055106;28;20049;-58
2022/05/07 12:32:16;;;;;;;17.23;11.43;;;16.70;99.90;;;;;;5072759;28;20044;-58
2022/05/07 12:34:42;;;;;;;19.45;10.90;;;;;;;;;;5073470;28;20397;-60
2022/05/07 12:37:08;;;;;;;14.40;10.15;;;16.80;99.90;;;;;;5050145;28;20198;-61
2022/05/07 12:39:34;;;;;;;17.20;10.75;;;;;;;;;;5037688;28;20056;-60
2022/05/07 12:42:11;;;;;;;12.45;8.52;;;17.10;99.90;;;;;;5050543;28;20032;-60
2022/05/07 12:44:37;;;;;;;13.50;9.23;;;17.10;99.90;;;;;;5052295;28;20137;-61
2022/05/07 12:47:05;;;;;;;13.02;8.90;;;;;;;;;;5066134;28;20033;-61
2022/05/07 12:49:31;;;;;;;11.85;7.93;;;;;;;;;;5059257;28;20139;-61
2022/05/07 12:51:57;;;;;;;11.50;8.05;;;;;;;;;;5058721;28;20632;-61
2022/05/07 12:54:23;;;;;;;14.35;8.43;;;;;;;;;;5063738;28;20055;-61
2022/05/07 12:56:49;;;;;;;15.65;8.80;;;;;;;;;;5054830;28;20047;-61
2022/05/07 12:59:15;;;;;;;12.32;7.00;;;;;;;;;;5065916;28;20036;-61
2022/05/07 13:01:41;;;;;;;11.27;7.20;;;;;;;;;;5054478;28;20049;-61
2022/05/07 13:04:08;;;;;;;11.90;7.90;;;;;;;;;;5065962;28;20040;-61
2022/05/07 13:06:34;;;;;;;11.55;7.32;;;;;;;;;;5070215;28;20113;-61
2022/05/07 13:09:00;;;;;;;9.73;6.22;;;;;;;;;;5050299;28;20828;-61
2022/05/07 13:11:27;;;;;;;9.15;5.70;;;17.70;99.90;;;;;;5069347;28;20044;-61
2022/05/07 13:13:54;;;;;;;7.28;4.20;;;18.00;99.90;;;;;;5050418;28;20052;-61
2022/05/07 13:16:20;;;;;;;7.60;4.20;;;17.70;99.90;;;;;;5052233;28;20049;-61
2022/05/07 13:18:46;;;;;;;7.43;3.22;;;;;;;;;;5052012;28;20080;-61
2022/05/07 13:21:12;;;;;;;8.38;4.30;;;;;;;;;;5069975;28;20083;-61
2022/05/07 13:23:39;;;;;;;6.88;4.28;;;17.30;99.90;;;;;;5070576;28;20140;-61
2022/05/07 13:26:05;;;;;;;7.18;3.78;;;17.40;99.90;;;;;;5051475;28;20067;-61
2022/05/07 13:28:31;;;;;;;9.75;5.22;;;;;;;;;;5070104;28;20131;-61
2022/05/07 13:31:00;;;;;;;12.75;7.03;;;18.80;99.90;;;;;;5052493;28;20440;-61
2022/05/07 13:33:27;;;;;;;11.95;6.43;;;17.20;99.90;;;;;;5069226;28;20543;-61
2022/05/07 13:35:54;;;;;;;11.27;6.35;;;17.40;99.90;;;;;;5069610;28;20124;-61
2022/05/07 13:38:20;;;;;;;9.13;5.47;;;16.60;99.90;;;;;;5069718;28;20427;-61
2022/05/07 13:40:46;;;;;;;9.80;6.00;;;17.30;99.90;;;;;;5069455;28;20066;-61